Time;durP1;ratioP1;P1;durP2;ratioP2;P2;SDS_P1;SDS_P2;PMS_P1;PMS_P2;Temp;Humidity;BMP_temperature;BMP_pressure;BME280_temperature;BME280_humidity;BME280_pressure;Samples;Min_cycle;Max_cycle;Signal;HPM_P1;HPM_P2
2022/09/02 00:01:23;;;;;;;5.32;1.30;;;19.50;74.90;;;;;;4996899;28;20200;-71
2022/09/02 00:03:50;;;;;;;3.83;1.20;;;19.50;75.00;;;;;;5014556;28;20092;-70
2022/09/02 00:06:17;;;;;;;4.30;1.48;;;19.50;75.00;;;;;;4999012;28;20558;-71
2022/09/02 00:08:43;;;;;;;4.35;1.35;;;19.40;75.00;;;;;;5018463;28;20387;-70
2022/09/02 00:11:14;;;;;;;4.40;1.48;;;19.40;75.20;;;;;;5000464;28;20479;-70
2022/09/02 00:13:41;;;;;;;2.50;1.33;;;19.30;75.30;;;;;;5018635;28;20037;-70
2022/09/02 00:16:07;;;;;;;3.10;1.40;;;19.30;75.30;;;;;;5001386;28;20033;-70
2022/09/02 00:18:32;;;;;;;2.15;1.10;;;19.30;75.40;;;;;;5018015;28;20030;-70
2022/09/02 00:20:58;;;;;;;3.88;1.40;;;19.20;75.40;;;;;;5017734;28;20113;-70
2022/09/02 00:23:25;;;;;;;3.92;1.65;;;19.30;75.50;;;;;;5018092;28;20421;-70
2022/09/02 00:25:50;;;;;;;3.33;1.40;;;19.30;75.50;;;;;;5017673;28;20526;-70
2022/09/02 00:28:16;;;;;;;3.70;1.27;;;19.20;75.50;;;;;;5017886;28;20318;-70
2022/09/02 00:30:43;;;;;;;2.83;1.40;;;19.20;75.50;;;;;;4999837;28;20033;-70
2022/09/02 00:33:10;;;;;;;3.80;1.20;;;19.20;75.60;;;;;;5000067;28;20033;-70
2022/09/02 00:35:36;;;;;;;2.13;1.10;;;19.20;75.70;;;;;;5018004;28;20018;-70
2022/09/02 00:38:04;;;;;;;3.40;1.40;;;19.20;75.70;;;;;;5017729;28;20022;-70
2022/09/02 00:40:31;;;;;;;4.28;1.40;;;19.10;75.80;;;;;;4999998;28;20060;-70
2022/09/02 00:42:57;;;;;;;3.08;1.40;;;19.10;76.00;;;;;;4983921;28;20037;-70
2022/09/02 00:45:23;;;;;;;3.58;1.17;;;19.10;75.90;;;;;;5000237;28;20041;-70
2022/09/02 00:47:50;;;;;;;4.28;1.50;;;19.10;75.80;;;;;;5017363;28;20034;-70
2022/09/02 00:50:22;;;;;;;3.10;1.17;;;19.00;75.70;;;;;;5016960;28;20032;-70
2022/09/02 00:52:55;;;;;;;4.47;1.52;;;19.00;75.80;;;;;;4999730;28;20040;-70
2022/09/02 00:55:31;;;;;;;3.20;1.30;;;19.00;75.90;;;;;;4999552;28;20026;-70
2022/09/02 00:58:24;;;;;;;3.30;1.30;;;19.00;75.80;;;;;;4983291;28;20033;-70
2022/09/02 01:00:56;;;;;;;3.35;1.40;;;19.00;75.80;;;;;;5017489;28;20026;-70
2022/09/02 01:03:26;;;;;;;6.25;1.40;;;19.00;75.90;;;;;;4999746;28;20064;-70
2022/09/02 01:05:54;;;;;;;4.63;1.25;;;19.00;76.00;;;;;;5017253;28;20089;-70
2022/09/02 01:08:28;;;;;;;3.33;1.27;;;19.00;76.00;;;;;;4983204;28;20096;-70
2022/09/02 01:10:55;;;;;;;3.90;1.60;;;18.90;76.00;;;;;;4999020;28;20026;-70
2022/09/02 01:13:28;;;;;;;3.33;1.45;;;18.90;76.00;;;;;;5017244;28;20026;-70
2022/09/02 01:16:10;;;;;;;6.10;1.35;;;18.90;76.00;;;;;;5016601;28;20552;-70
2022/09/02 01:18:37;;;;;;;2.63;1.30;;;18.90;76.10;;;;;;5015688;28;20629;-69
2022/09/02 01:21:04;;;;;;;4.35;1.40;;;18.90;76.10;;;;;;4999256;28;20037;-70
2022/09/02 01:23:31;;;;;;;3.85;1.67;;;18.80;76.20;;;;;;4999118;28;20108;-70
2022/09/02 01:25:57;;;;;;;2.08;1.30;;;18.80;76.40;;;;;;4998980;28;20065;-72
2022/09/02 01:28:24;;;;;;;5.00;1.30;;;18.80;76.40;;;;;;5017365;28;20033;-72
2022/09/02 01:30:53;;;;;;;2.92;1.52;;;18.80;76.40;;;;;;4999435;28;20552;-72
2022/09/02 01:33:22;;;;;;;3.10;1.50;;;18.80;76.50;;;;;;5016692;28;20383;-72
2022/09/02 01:35:49;;;;;;;5.85;1.40;;;18.80;76.50;;;;;;4998848;28;20032;-71
2022/09/02 01:38:17;;;;;;;4.20;1.60;;;18.80;76.60;;;;;;4998888;28;20029;-72
2022/09/02 01:40:44;;;;;;;4.43;1.58;;;18.70;76.70;;;;;;4998817;28;20030;-72
2022/09/02 01:43:16;;;;;;;4.07;1.60;;;18.70;77.00;;;;;;4998567;28;20033;-72
2022/09/02 01:45:47;;;;;;;4.78;1.77;;;18.70;77.20;;;;;;4998641;28;20083;-72
2022/09/02 01:48:14;;;;;;;2.63;1.40;;;18.70;77.30;;;;;;4998697;28;20033;-72
2022/09/02 01:50:44;;;;;;;8.27;1.90;;;18.70;77.40;;;;;;4998634;28;20115;-72
2022/09/02 01:53:10;;;;;;;4.88;1.55;;;18.70;77.60;;;;;;4982463;28;20506;-72
2022/09/02 01:55:36;;;;;;;3.47;1.38;;;18.60;77.70;;;;;;4998516;28;20026;-72
2022/09/02 01:58:02;;;;;;;3.85;1.42;;;18.60;77.90;;;;;;4998350;28;20033;-72
2022/09/02 02:00:29;;;;;;;3.17;1.42;;;18.60;77.90;;;;;;4982234;28;20065;-72
2022/09/02 02:02:56;;;;;;;2.97;1.20;;;18.60;77.90;;;;;;4998243;28;20079;-72
2022/09/02 02:05:22;;;;;;;3.30;1.35;;;18.50;78.00;;;;;;5015695;28;20029;-72
2022/09/02 02:07:50;;;;;;;4.18;1.40;;;18.60;78.20;;;;;;4998798;28;20498;-72
2022/09/02 02:10:18;;;;;;;6.32;1.70;;;18.50;78.20;;;;;;5015959;28;20033;-72
2022/09/02 02:12:45;;;;;;;;;;;18.50;78.40;;;;;;4998563;28;20048;-71
2022/09/02 02:15:15;;;;;;;4.05;1.40;;;18.50;78.60;;;;;;5024115;23;20008;-83
2022/09/02 02:17:41;;;;;;;3.80;1.42;;;18.50;78.60;;;;;;5011888;28;20495;-83
2022/09/02 02:20:09;;;;;;;2.95;1.30;;;18.50;78.70;;;;;;5010320;28;20124;-83
2022/09/02 02:22:35;;;;;;;3.75;1.48;;;18.40;78.70;;;;;;5010858;28;20026;-83
2022/09/02 02:25:01;;;;;;;4.07;1.50;;;18.40;78.80;;;;;;5010493;28;20103;-82
2022/09/02 02:27:28;;;;;;;3.17;1.60;;;18.40;78.90;;;;;;5026916;28;20037;-83
2022/09/02 02:29:54;;;;;;;2.63;1.35;;;18.40;78.80;;;;;;5010021;28;20034;-83
2022/09/02 02:32:21;;;;;;;6.07;1.70;;;18.40;79.00;;;;;;5010539;28;20394;-83
2022/09/02 02:34:47;;;;;;;2.50;1.20;;;18.40;79.00;;;;;;5011769;28;20030;-83
2022/09/02 02:37:14;;;;;;;3.35;1.35;;;18.40;79.00;;;;;;5010288;28;20049;-83
2022/09/02 02:39:41;;;;;;;2.95;1.20;;;18.40;79.00;;;;;;5010161;28;20080;-83
2022/09/02 02:42:12;;;;;;;4.03;1.30;;;18.40;78.90;;;;;;4994044;28;20041;-83
2022/09/02 02:44:39;;;;;;;3.97;1.10;;;18.30;78.90;;;;;;5010368;28;20029;-83
2022/09/02 02:47:06;;;;;;;4.35;1.27;;;18.30;78.90;;;;;;5011394;28;20479;-83
2022/09/02 02:49:39;;;;;;;2.95;1.20;;;18.30;78.90;;;;;;5009931;28;20075;-83
2022/09/02 02:52:07;;;;;;;3.92;1.58;;;18.30;78.90;;;;;;5010241;28;20413;-83
2022/09/02 02:54:33;;;;;;;3.85;1.33;;;18.20;79.00;;;;;;5010075;28;20033;-81
2022/09/02 02:56:59;;;;;;;2.80;1.20;;;18.20;79.20;;;;;;4993730;28;20026;-81
2022/09/02 02:59:25;;;;;;;4.60;1.25;;;18.20;79.30;;;;;;5011254;28;20048;-81
2022/09/02 03:01:51;;;;;;;3.50;1.42;;;18.20;79.30;;;;;;5010066;28;20029;-81
2022/09/02 03:04:17;;;;;;;3.17;1.30;;;18.20;79.50;;;;;;5011370;28;20113;-81
2022/09/02 03:06:43;;;;;;;4.20;1.20;;;18.20;79.50;;;;;;5009609;28;20037;-81
2022/09/02 03:09:10;;;;;;;4.38;1.50;;;18.20;79.40;;;;;;5009883;28;20454;-81
2022/09/02 03:11:36;;;;;;;4.68;1.40;;;18.20;79.50;;;;;;4993700;28;20022;-81
2022/09/02 03:14:04;;;;;;;2.78;1.30;;;18.20;79.40;;;;;;5010119;28;20483;-81
2022/09/02 03:16:32;;;;;;;;;;;18.10;79.40;;;;;;5010032;28;20061;-81
2022/09/02 03:18:58;;;;;;;5.57;1.40;;;18.10;79.50;;;;;;5011480;28;19909;-81
2022/09/02 03:21:24;;;;;;;4.25;1.52;;;18.10;79.60;;;;;;5026151;28;20104;-81
2022/09/02 03:23:49;;;;;;;6.18;1.15;;;18.10;79.50;;;;;;5009862;28;20037;-81
2022/09/02 03:26:18;;;;;;;3.55;1.20;;;18.00;79.60;;;;;;5009479;28;20552;-81
2022/09/02 03:28:46;;;;;;;3.90;1.25;;;18.10;79.70;;;;;;5025960;28;20316;-81
2022/09/02 03:31:15;;;;;;;3.22;1.30;;;18.00;79.70;;;;;;5009577;28;20033;-81
2022/09/02 03:33:41;;;;;;;3.95;1.67;;;18.00;79.90;;;;;;5026108;28;20108;-81
2022/09/02 03:36:07;;;;;;;4.13;1.50;;;17.90;79.90;;;;;;5009381;28;20030;-81
2022/09/02 03:38:35;;;;;;;4.47;1.38;;;18.00;80.00;;;;;;5025917;28;20072;-81
2022/09/02 03:41:01;;;;;;;6.28;1.40;;;18.00;80.10;;;;;;5027966;28;20026;-81
2022/09/02 03:43:27;;;;;;;4.22;1.45;;;18.00;80.00;;;;;;5013642;28;20033;-81
2022/09/02 03:45:54;;;;;;;6.43;1.40;;;17.90;80.10;;;;;;5013346;28;20044;-81
2022/09/02 03:48:22;;;;;;;3.97;1.35;;;17.90;80.20;;;;;;5013510;28;20394;-81
2022/09/02 03:50:48;;;;;;;3.83;1.65;;;17.90;80.40;;;;;;5029785;28;20025;-81
2022/09/02 03:53:18;;;;;;;3.13;1.30;;;17.90;80.40;;;;;;5013496;28;20033;-81
2022/09/02 03:55:44;;;;;;;5.10;1.70;;;17.80;80.30;;;;;;5014532;28;20022;-81
2022/09/02 03:58:12;;;;;;;6.38;1.75;;;17.80;80.40;;;;;;5013518;28;20050;-81
2022/09/02 04:00:39;;;;;;;5.10;1.60;;;17.80;80.30;;;;;;5013187;28;20030;-81
2022/09/02 04:03:06;;;;;;;2.67;1.30;;;17.90;80.30;;;;;;5029852;28;20076;-81
2022/09/02 04:05:32;;;;;;;3.83;1.60;;;17.80;80.30;;;;;;5029680;28;20072;-81
2022/09/02 04:08:00;;;;;;;3.70;1.30;;;17.80;80.30;;;;;;5029568;28;20037;-81
2022/09/02 04:10:27;;;;;;;8.57;1.75;;;17.80;80.40;;;;;;5029439;28;20037;-81
2022/09/02 04:12:53;;;;;;;4.93;1.38;;;17.80;81.10;;;;;;5013359;28;20060;-81
2022/09/02 04:15:20;;;;;;;2.58;1.58;;;17.80;80.40;;;;;;5029471;28;20034;-81
2022/09/02 04:17:48;;;;;;;4.05;1.50;;;17.70;80.50;;;;;;5029288;28;20443;-81
2022/09/02 04:20:16;;;;;;;6.15;1.83;;;17.70;80.70;;;;;;5029247;28;20030;-81
2022/09/02 04:22:43;;;;;;;4.40;1.70;;;17.70;80.70;;;;;;5029716;28;20117;-81
2022/09/02 04:25:09;;;;;;;5.30;1.83;;;17.70;81.40;;;;;;5029391;28;20030;-80
2022/09/02 04:27:36;;;;;;;4.60;1.77;;;17.70;81.40;;;;;;5029260;28;20393;-81
2022/09/02 04:30:03;;;;;;;5.75;2.00;;;17.70;80.60;;;;;;5012578;28;20025;-81
2022/09/02 04:32:31;;;;;;;6.43;1.83;;;17.70;80.70;;;;;;5013131;28;20403;-81
2022/09/02 04:34:58;;;;;;;4.60;1.60;;;17.70;80.80;;;;;;5012651;28;20022;-81
2022/09/02 04:37:26;;;;;;;4.50;1.75;;;17.60;80.80;;;;;;5028996;28;20026;-81
2022/09/02 04:39:52;;;;;;;3.80;1.73;;;17.60;81.00;;;;;;5028864;28;20026;-81
2022/09/02 04:42:19;;;;;;;6.35;2.15;;;17.60;81.00;;;;;;5012734;28;20037;-81
2022/09/02 04:44:46;;;;;;;4.05;2.10;;;17.60;81.10;;;;;;5028943;28;20030;-81
2022/09/02 04:47:12;;;;;;;6.68;2.22;;;17.60;81.20;;;;;;5028783;28;20036;-81
2022/09/02 04:49:40;;;;;;;4.57;1.60;;;17.60;81.20;;;;;;5012087;28;20030;-81
2022/09/02 04:52:09;;;;;;;5.38;1.70;;;17.60;81.40;;;;;;5028679;28;20359;-81
2022/09/02 04:54:38;;;;;;;4.20;1.77;;;17.60;81.20;;;;;;5012318;28;20052;-81
2022/09/02 04:57:06;;;;;;;6.90;2.00;;;17.60;81.20;;;;;;5012193;28;20030;-81
2022/09/02 04:59:35;;;;;;;4.50;1.67;;;17.50;81.20;;;;;;5011980;28;20037;-81
2022/09/02 05:02:06;;;;;;;4.10;1.90;;;17.50;81.30;;;;;;5012262;28;20513;-81
2022/09/02 05:04:32;;;;;;;5.72;1.95;;;17.60;81.50;;;;;;5013591;28;20030;-81
2022/09/02 05:07:00;;;;;;;6.07;2.15;;;17.50;81.50;;;;;;5011906;28;20096;-81
2022/09/02 05:09:28;;;;;;;;;;;17.50;81.50;;;;;;5012332;28;20092;-81
2022/09/02 05:12:01;;;;;;;5.22;1.90;;;17.60;81.60;;;;;;5012009;28;19913;-81
2022/09/02 05:14:31;;;;;;;5.35;1.85;;;17.50;82.10;;;;;;4995968;28;20049;-80
2022/09/02 05:17:00;;;;;;;9.02;2.30;;;17.60;81.50;;;;;;5011951;28;20041;-81
2022/09/02 05:19:26;;;;;;;5.22;1.83;;;17.60;81.40;;;;;;5011638;28;20487;-81
2022/09/02 05:21:57;;;;;;;4.97;2.03;;;17.60;81.40;;;;;;5011707;28;20034;-81
2022/09/02 05:24:31;;;;;;;6.35;1.83;;;17.70;81.40;;;;;;5011756;28;20033;-81
2022/09/02 05:27:02;;;;;;;11.45;2.30;;;17.60;81.40;;;;;;5011744;28;20252;-81
2022/09/02 05:29:32;;;;;;;7.07;2.13;;;17.60;81.40;;;;;;5027895;28;20037;-81
2022/09/02 05:31:57;;;;;;;8.93;2.35;;;17.60;81.50;;;;;;5011759;28;20556;-81
2022/09/02 05:34:25;;;;;;;10.20;2.10;;;17.60;81.50;;;;;;5011534;28;20030;-81
2022/09/02 05:36:53;;;;;;;7.45;2.38;;;17.60;81.60;;;;;;5011239;28;20172;-81
2022/09/02 05:39:19;;;;;;;7.90;2.40;;;17.60;81.80;;;;;;5011306;28;20149;-81
2022/09/02 05:41:46;;;;;;;5.35;2.38;;;17.60;81.80;;;;;;5028108;28;20041;-81
2022/09/02 05:44:12;;;;;;;13.13;3.00;;;17.60;81.80;;;;;;5011592;28;20026;-81
2022/09/02 05:46:38;;;;;;;9.68;2.83;;;17.70;81.80;;;;;;5011267;28;20030;-80
2022/09/02 05:49:16;;;;;;;8.13;2.47;;;17.70;81.80;;;;;;5027625;28;20038;-81
2022/09/02 05:51:52;;;;;;;5.93;2.30;;;17.70;81.80;;;;;;5027808;28;20049;-80
2022/09/02 05:54:27;;;;;;;11.63;2.90;;;17.70;82.00;;;;;;5027700;28;20029;-81
2022/09/02 05:56:55;;;;;;;6.30;2.20;;;17.70;81.90;;;;;;5011113;28;20082;-81
2022/09/02 05:59:24;;;;;;;11.03;4.77;;;17.70;81.90;;;;;;5011128;28;20030;-81
2022/09/02 06:01:50;;;;;;;;;;;17.70;82.00;;;;;;5028118;28;20065;-81
2022/09/02 06:04:17;;;;;;;9.38;2.85;;;17.70;82.20;;;;;;5010418;28;20289;-80
2022/09/02 06:06:45;;;;;;;91.65;13.00;;;17.70;82.10;;;;;;5027174;28;20034;-81
2022/09/02 06:09:16;;;;;;;61.80;10.65;;;17.80;82.20;;;;;;5010677;28;20129;-81
2022/09/02 06:11:44;;;;;;;25.52;6.60;;;17.90;82.30;;;;;;5010896;28;20390;-81
2022/09/02 06:14:16;;;;;;;60.08;11.02;;;17.90;82.20;;;;;;5027344;28;20037;-81
2022/09/02 06:16:42;;;;;;;45.25;8.82;;;18.00;82.00;;;;;;5027294;28;20033;-81
2022/09/02 06:19:16;;;;;;;17.85;4.07;;;18.00;82.10;;;;;;5010703;28;20088;-81
2022/09/02 06:21:42;;;;;;;15.00;3.63;;;18.00;82.20;;;;;;5027440;28;20057;-81
2022/09/02 06:24:10;;;;;;;12.02;3.30;;;18.00;82.20;;;;;;5012075;28;20053;-81
2022/09/02 06:26:37;;;;;;;11.40;2.63;;;18.10;82.40;;;;;;5010522;28;20029;-81
2022/09/02 06:29:04;;;;;;;8.93;2.92;;;18.10;82.30;;;;;;5010429;28;20030;-81
2022/09/02 06:31:30;;;;;;;6.57;2.70;;;18.20;82.20;;;;;;5027136;28;20371;-81
2022/09/02 06:33:57;;;;;;;14.20;2.67;;;18.20;82.10;;;;;;4994218;28;20116;-81
2022/09/02 06:36:26;;;;;;;4.50;2.35;;;18.20;82.00;;;;;;5026714;28;20026;-81
2022/09/02 06:38:54;;;;;;;11.82;2.60;;;18.20;81.90;;;;;;5026858;28;20056;-81
2022/09/02 06:41:27;;;;;;;6.85;2.58;;;18.20;81.80;;;;;;5010292;28;20462;-82
2022/09/02 06:43:56;;;;;;;9.77;2.50;;;18.20;81.60;;;;;;5010483;28;20033;-82
2022/09/02 06:46:29;;;;;;;7.80;2.95;;;18.20;81.50;;;;;;5026721;28;20458;-81
2022/09/02 06:48:57;;;;;;;10.20;3.00;;;18.20;81.40;;;;;;5011447;28;20064;-81
2022/09/02 06:51:30;;;;;;;7.88;3.20;;;18.20;81.40;;;;;;5026902;28;20121;-81
2022/09/02 06:53:59;;;;;;;8.30;2.97;;;18.20;81.40;;;;;;4994068;28;20091;-80
2022/09/02 06:56:27;;;;;;;6.53;3.40;;;18.20;81.40;;;;;;5026330;28;20055;-81
2022/09/02 06:58:53;;;;;;;7.85;3.25;;;18.30;81.30;;;;;;5026426;28;20041;-81
2022/09/02 07:01:27;;;;;;;10.98;3.30;;;18.30;81.30;;;;;;5026531;28;20061;-80
2022/09/02 07:06:42;;;;;;;8.43;2.80;;;18.30;81.40;;;;;;5010002;28;20022;-81
2022/09/02 07:09:11;;;;;;;13.10;3.72;;;18.40;81.30;;;;;;5026367;28;20030;-82
2022/09/02 07:11:37;;;;;;;8.68;3.20;;;18.50;81.30;;;;;;5026313;28;20022;-82
2022/09/02 07:14:04;;;;;;;6.05;2.25;;;18.50;81.20;;;;;;5009887;28;20406;-81
2022/09/02 07:16:33;;;;;;;10.30;2.80;;;18.60;81.10;;;;;;5009540;28;20026;-81
2022/09/02 07:19:00;;;;;;;5.47;2.40;;;18.70;81.30;;;;;;5010856;28;20022;-82
2022/09/02 07:21:28;;;;;;;5.22;2.40;;;18.70;81.30;;;;;;5026210;28;20034;-81
2022/09/02 07:23:54;;;;;;;10.77;2.75;;;18.80;81.10;;;;;;5026170;28;20173;-81
2022/09/02 07:26:21;;;;;;;5.72;2.38;;;19.00;81.30;;;;;;5026139;28;20053;-81
2022/09/02 07:28:51;;;;;;;6.00;2.10;;;19.10;81.30;;;;;;5025864;28;20034;-81
2022/09/02 07:31:17;;;;;;;4.15;1.50;;;19.10;81.20;;;;;;5026008;28;20180;-82
2022/09/02 07:33:44;;;;;;;6.43;3.20;;;19.20;81.40;;;;;;5026040;28;20052;-81
2022/09/02 07:36:11;;;;;;;4.75;2.15;;;19.30;81.50;;;;;;5009320;28;20026;-81
2022/09/02 07:38:39;;;;;;;6.88;2.20;;;19.30;81.90;;;;;;5025931;28;20121;-81
2022/09/02 07:41:08;;;;;;;4.88;1.90;;;19.40;81.90;;;;;;5009511;28;20552;-81
2022/09/02 07:43:35;;;;;;;9.80;2.10;;;19.40;81.80;;;;;;5009579;28;20026;-81
2022/09/02 07:46:04;;;;;;;5.18;1.73;;;19.40;81.80;;;;;;5009264;28;20022;-82
2022/09/02 07:48:31;;;;;;;4.97;1.70;;;19.40;81.50;;;;;;5009273;28;20034;-81
2022/09/02 07:50:57;;;;;;;4.45;1.50;;;19.40;81.30;;;;;;5025974;28;20037;-82
2022/09/02 07:53:27;;;;;;;5.18;2.10;;;19.50;81.40;;;;;;5026074;28;20037;-81
2022/09/02 07:55:53;;;;;;;4.05;1.80;;;19.50;81.50;;;;;;5025709;28;20034;-81
2022/09/02 07:58:21;;;;;;;8.23;2.40;;;19.60;81.40;;;;;;5009516;28;20030;-81
2022/09/02 08:00:49;;;;;;;4.05;2.00;;;19.60;81.40;;;;;;5025604;28;20030;-82
2022/09/02 08:03:16;;;;;;;5.72;1.80;;;19.60;81.50;;;;;;5010740;28;20486;-81
2022/09/02 08:05:51;;;;;;;5.95;2.22;;;19.70;81.60;;;;;;5009209;28;20037;-81
2022/09/02 08:08:21;;;;;;;4.10;1.73;;;19.70;81.00;;;;;;5010741;28;20111;-81
2022/09/02 08:10:51;;;;;;;4.53;1.90;;;19.80;81.00;;;;;;5009032;28;20034;-81
2022/09/02 08:13:17;;;;;;;10.95;2.60;;;19.90;80.90;;;;;;5010586;28;20064;-81
2022/09/02 08:15:44;;;;;;;7.50;2.17;;;19.90;80.70;;;;;;5051472;22;20129;-78
2022/09/02 08:18:10;;;;;;;7.13;2.60;;;20.00;80.10;;;;;;5010405;28;20037;-77
2022/09/02 08:20:36;;;;;;;10.35;2.92;;;20.00;80.10;;;;;;4992341;28;20030;-77
2022/09/02 08:23:05;;;;;;;9.88;2.42;;;20.10;79.90;;;;;;5010500;28;20406;-77
2022/09/02 08:25:31;;;;;;;8.38;3.22;;;20.10;80.00;;;;;;5010399;28;20034;-77
2022/09/02 08:27:57;;;;;;;8.95;3.75;;;20.10;80.10;;;;;;4995525;28;20038;-77
2022/09/02 08:30:23;;;;;;;7.20;3.00;;;20.10;79.70;;;;;;5013775;28;20498;-77
2022/09/02 08:32:49;;;;;;;8.07;2.92;;;20.20;79.40;;;;;;5014006;28;20080;-77
2022/09/02 08:35:14;;;;;;;7.75;3.00;;;20.20;79.50;;;;;;5013950;28;20026;-77
2022/09/02 08:37:40;;;;;;;7.05;2.90;;;20.20;79.40;;;;;;5013739;28;20041;-77
2022/09/02 08:40:17;;;;;;;6.47;2.63;;;20.20;79.40;;;;;;5013710;28;20076;-77
2022/09/02 08:42:55;;;;;;;5.30;2.65;;;20.20;79.70;;;;;;5013953;28;20475;-77
2022/09/02 08:45:37;;;;;;;6.07;2.70;;;20.20;79.90;;;;;;5013962;28;20068;-77
2022/09/02 08:48:26;;;;;;;5.90;2.50;;;20.20;80.10;;;;;;5013946;28;20120;-77
2022/09/02 08:50:57;;;;;;;5.28;2.30;;;20.20;80.40;;;;;;5013431;28;20037;-77
2022/09/02 08:53:59;;;;;;;5.03;2.00;;;20.20;80.80;;;;;;5013703;28;20043;-77
2022/09/02 08:56:26;;;;;;;4.75;2.17;;;20.30;81.00;;;;;;5002641;28;20099;-77
2022/09/02 08:58:55;;;;;;;5.10;1.90;;;20.30;81.00;;;;;;4995933;28;20025;-77
2022/09/02 09:01:43;;;;;;;4.38;1.92;;;20.30;81.10;;;;;;5013463;28;20403;-77
2022/09/02 09:04:11;;;;;;;3.75;1.90;;;20.40;81.10;;;;;;5013457;28;20471;-77
2022/09/02 09:07:28;;;;;;;6.75;2.20;;;20.40;81.10;;;;;;5013237;28;20065;-77
2022/09/02 09:10:24;;;;;;;3.00;1.85;;;20.40;80.80;;;;;;4969193;28;20081;-77
2022/09/02 09:13:19;;;;;;;6.18;1.95;;;20.50;80.90;;;;;;5013372;28;20044;-77
2022/09/02 09:15:54;;;;;;;4.18;1.90;;;20.50;80.90;;;;;;5012865;28;20124;-77
2022/09/02 09:18:47;;;;;;;2.60;1.50;;;20.50;80.90;;;;;;5013203;28;20525;-77
2022/09/02 09:21:13;;;;;;;3.58;1.70;;;20.60;80.50;;;;;;5013137;28;20033;-77
2022/09/02 09:23:39;;;;;;;3.78;1.73;;;20.60;79.60;;;;;;5013108;28;20030;-77
2022/09/02 09:26:15;;;;;;;2.65;1.70;;;20.60;78.10;;;;;;5012700;28;20084;-77
2022/09/02 09:28:43;;;;;;;3.10;1.83;;;20.70;78.30;;;;;;5012688;28;20030;-77
2022/09/02 09:31:21;;;;;;;7.25;2.40;;;20.70;77.80;;;;;;5012917;28;20092;-77
2022/09/02 09:33:56;;;;;;;3.75;1.58;;;20.80;77.30;;;;;;5013113;28;20037;-77
2022/09/02 09:36:45;;;;;;;6.47;1.70;;;21.00;76.80;;;;;;5012669;28;20398;-77
2022/09/02 09:39:21;;;;;;;2.55;1.40;;;21.00;76.70;;;;;;5011596;28;20484;-77
2022/09/02 09:41:49;;;;;;;3.40;1.50;;;21.10;76.10;;;;;;5012735;28;20398;-77
2022/09/02 09:44:37;;;;;;;3.58;1.73;;;21.20;75.80;;;;;;5012724;28;20133;-77
2022/09/02 09:47:05;;;;;;;;;;;21.20;76.10;;;;;;5012909;28;20029;-77
2022/09/02 09:49:32;;;;;;;5.78;1.55;;;21.30;75.90;;;;;;5012354;28;20381;-76
2022/09/02 09:51:59;;;;;;;3.63;1.55;;;21.30;75.50;;;;;;5012532;28;20041;-77
2022/09/02 09:54:26;;;;;;;2.63;1.52;;;21.40;74.50;;;;;;5012737;28;20033;-77
2022/09/02 09:56:54;;;;;;;5.22;1.77;;;21.50;73.50;;;;;;5012703;28;20440;-76
2022/09/02 09:59:40;;;;;;;3.80;1.83;;;21.60;73.00;;;;;;5012158;28;20406;-77
2022/09/02 10:02:19;;;;;;;3.15;1.83;;;21.70;72.70;;;;;;4978704;28;20033;-77
2022/09/02 10:04:45;;;;;;;3.20;1.75;;;21.80;72.80;;;;;;4994882;28;20034;-77
2022/09/02 10:07:14;;;;;;;3.65;1.67;;;21.80;72.20;;;;;;5012109;28;20041;-77
2022/09/02 10:09:41;;;;;;;2.25;1.65;;;21.80;72.00;;;;;;5011885;28;20034;-77
2022/09/02 10:12:10;;;;;;;3.33;1.90;;;21.80;72.00;;;;;;5012177;28;20033;-77
2022/09/02 10:14:42;;;;;;;3.75;1.90;;;21.80;72.00;;;;;;5012066;28;20064;-77
2022/09/02 10:17:11;;;;;;;3.90;2.05;;;21.80;71.70;;;;;;5011899;28;20038;-77
2022/09/02 10:19:50;;;;;;;4.32;1.50;;;21.70;72.00;;;;;;5011998;28;20022;-77
2022/09/02 10:23:00;;;;;;;2.78;1.50;;;21.70;71.80;;;;;;5012002;28;20529;-76
2022/09/02 10:25:37;;;;;;;7.55;1.83;;;21.70;69.10;;;;;;4994687;28;20509;-77
2022/09/02 10:28:17;;;;;;;4.97;1.40;;;21.80;67.60;;;;;;5012005;28;20087;-77
2022/09/02 10:31:02;;;;;;;3.22;1.42;;;21.90;67.80;;;;;;4994040;28;20672;-77
2022/09/02 10:34:02;;;;;;;3.20;1.23;;;22.10;67.90;;;;;;4994439;28;20036;-77
2022/09/02 10:36:55;;;;;;;3.13;1.85;;;22.10;67.90;;;;;;5011617;28;20026;-77
2022/09/02 10:39:44;;;;;;;3.83;1.50;;;22.10;67.50;;;;;;4993897;28;20034;-77
2022/09/02 10:42:26;;;;;;;2.92;1.58;;;22.20;66.40;;;;;;5011776;28;20044;-77
2022/09/02 10:45:05;;;;;;;2.30;1.38;;;22.20;66.80;;;;;;5011658;28;20033;-76
2022/09/02 10:47:36;;;;;;;4.55;2.00;;;22.30;66.20;;;;;;5011363;28;20045;-77
2022/09/02 10:50:25;;;;;;;3.45;1.70;;;22.30;66.70;;;;;;5010980;28;20044;-77
2022/09/02 10:53:03;;;;;;;3.63;2.10;;;22.30;67.60;;;;;;5011825;28;20033;-78
2022/09/02 10:55:41;;;;;;;4.03;2.20;;;22.30;67.90;;;;;;5011476;28;20375;-77
2022/09/02 10:58:32;;;;;;;3.00;1.88;;;22.30;66.30;;;;;;5011566;28;20029;-77
2022/09/02 11:00:58;;;;;;;4.70;1.80;;;22.30;66.10;;;;;;5011325;28;20096;-77
2022/09/02 11:03:41;;;;;;;4.10;1.83;;;22.40;65.80;;;;;;5011364;28;20022;-77
2022/09/02 11:06:29;;;;;;;2.85;1.77;;;22.40;65.40;;;;;;5010923;28;20030;-77
2022/09/02 11:09:05;;;;;;;4.18;1.73;;;22.40;64.90;;;;;;5011055;28;20030;-77
2022/09/02 11:11:42;;;;;;;4.05;1.58;;;22.40;64.60;;;;;;5011124;28;20040;-77
2022/09/02 11:14:34;;;;;;;3.42;1.70;;;22.40;63.90;;;;;;5011213;28;20033;-77
2022/09/02 11:17:45;;;;;;;2.47;1.38;;;22.30;64.70;;;;;;4980591;28;20147;-77
2022/09/02 11:20:35;;;;;;;2.42;1.20;;;22.30;65.10;;;;;;5010898;28;20061;-77
2022/09/02 11:23:17;;;;;;;3.85;1.60;;;22.20;65.50;;;;;;5011140;28;20056;-77
2022/09/02 11:26:06;;;;;;;2.47;1.40;;;22.30;65.60;;;;;;4993312;28;20030;-77
2022/09/02 11:28:51;;;;;;;4.93;2.42;;;22.40;64.40;;;;;;5010838;28;20109;-77
2022/09/02 11:31:35;;;;;;;3.80;1.40;;;22.40;63.60;;;;;;5010901;28;20068;-77
2022/09/02 11:34:15;;;;;;;3.72;2.45;;;22.60;62.90;;;;;;5010894;28;20034;-77
2022/09/02 11:36:41;;;;;;;3.70;1.90;;;22.60;63.20;;;;;;5010787;28;20054;-77
2022/09/02 11:39:15;;;;;;;3.42;1.50;;;22.60;63.40;;;;;;5010692;28;20077;-77
2022/09/02 11:42:14;;;;;;;1.88;1.13;;;22.60;63.70;;;;;;5010882;28;20494;-77
2022/09/02 11:44:55;;;;;;;2.75;1.27;;;22.60;64.00;;;;;;5010893;28;20451;-77
2022/09/02 11:47:48;;;;;;;4.05;1.80;;;22.50;64.20;;;;;;5010729;28;20034;-77
2022/09/02 11:50:29;;;;;;;2.55;1.50;;;22.50;63.70;;;;;;5010524;28;20033;-76
2022/09/02 11:53:19;;;;;;;3.38;1.50;;;22.60;63.20;;;;;;5011063;28;20041;-77
2022/09/02 11:55:52;;;;;;;3.47;2.10;;;22.60;62.80;;;;;;4993004;28;20417;-77
2022/09/02 11:58:30;;;;;;;2.40;1.80;;;22.70;63.80;;;;;;5010575;28;20030;-77
2022/09/02 12:00:57;;;;;;;3.00;1.70;;;22.70;64.50;;;;;;5010729;28;20057;-76
2022/09/02 12:03:30;;;;;;;3.15;1.40;;;22.70;64.30;;;;;;4996888;28;20422;-77
2022/09/02 12:06:18;;;;;;;3.08;1.27;;;22.60;64.20;;;;;;5014217;28;20401;-77
2022/09/02 12:08:44;;;;;;;3.33;1.60;;;22.60;63.70;;;;;;5014155;28;20022;-77
2022/09/02 12:11:29;;;;;;;3.65;1.77;;;22.60;63.70;;;;;;4980507;28;20406;-77
2022/09/02 12:13:57;;;;;;;3.65;2.22;;;22.60;63.50;;;;;;5014241;28;20049;-76
2022/09/02 12:16:29;;;;;;;4.20;1.88;;;22.70;63.70;;;;;;5014056;28;20033;-77
2022/09/02 12:18:57;;;;;;;4.25;2.28;;;22.70;62.90;;;;;;5014090;28;20052;-77
2022/09/02 12:21:26;;;;;;;3.17;1.80;;;22.70;63.40;;;;;;5014192;28;20038;-77
2022/09/02 12:23:55;;;;;;;3.15;1.40;;;22.60;63.70;;;;;;4996766;28;20026;-77
2022/09/02 12:26:37;;;;;;;4.75;2.10;;;22.60;63.30;;;;;;5013991;28;20402;-77
2022/09/02 12:29:33;;;;;;;6.32;2.30;;;22.50;63.70;;;;;;5013849;28;20052;-77
2022/09/02 12:31:59;;;;;;;4.68;1.60;;;22.50;64.00;;;;;;5014109;28;20036;-77
2022/09/02 12:34:27;;;;;;;3.08;1.50;;;22.50;63.60;;;;;;5014045;28;20037;-77
2022/09/02 12:36:57;;;;;;;4.63;1.50;;;22.50;63.70;;;;;;5014032;28;20112;-77
2022/09/02 12:39:29;;;;;;;2.85;1.25;;;22.60;64.00;;;;;;5013976;28;20038;-77
2022/09/02 12:42:08;;;;;;;2.58;1.25;;;22.60;63.20;;;;;;4996073;28;20083;-77
2022/09/02 12:45:01;;;;;;;3.40;1.50;;;22.70;63.70;;;;;;4996293;28;20030;-77
2022/09/02 12:47:40;;;;;;;2.83;1.33;;;22.70;64.20;;;;;;4996192;28;20057;-77
2022/09/02 12:50:32;;;;;;;2.42;1.10;;;22.80;63.60;;;;;;4995941;28;20025;-77
2022/09/02 12:53:10;;;;;;;2.67;1.27;;;22.80;63.40;;;;;;5013998;28;20112;-77
2022/09/02 12:55:36;;;;;;;;;;;22.80;63.80;;;;;;4996242;28;20061;-77
2022/09/02 12:58:13;;;;;;;2.63;1.38;;;22.90;62.40;;;;;;5013623;28;20369;-77
2022/09/02 13:00:42;;;;;;;1.92;1.30;;;22.90;62.70;;;;;;5013326;28;20482;-77
2022/09/02 13:03:25;;;;;;;3.25;1.50;;;22.90;62.90;;;;;;5013514;28;20104;-78
2022/09/02 13:06:01;;;;;;;4.00;1.80;;;22.90;62.60;;;;;;5013134;28;20553;-77
2022/09/02 13:08:54;;;;;;;1.75;1.17;;;23.00;63.00;;;;;;5013549;28;20479;-77
2022/09/02 13:11:28;;;;;;;2.30;1.17;;;23.00;62.20;;;;;;4995720;28;20033;-77
2022/09/02 13:14:03;;;;;;;2.33;1.30;;;23.00;62.30;;;;;;5013253;28;20037;-77